South Lebanon, Ohio
Current Conditions -  °F | °C
As of 5:15 PM on Saturday 25 Oct 2014 (Local Time) from KMWO Reporting Station
Clear Clear  
Wind Chill: 74°   Ceiling: Unl
Heat Index: 74°   Visibility: 10mi
Dew Point: 50°   Wind: 13mph
Humidity: 42%   Direction: 260°W
Pressure: 29.91"   Gusts: 16mph
Location:  39.37°N, 84.21°W
Report Text: KMWO 252115Z AUTO 26011G14KT 10SM CLR 24/10 A2991 RMK AO2 T02360101
Loading
Personal Weather Stations






























Interactive Weather Map
Tropical Storm Tracking
New forecast layout! Learn more

10-Day Weather Forecast

Advertisements
Track Severe Weather on mobile